sensor_id;sensor_type;location;lat;lon;timestamp;P1;durP1;ratioP1;P2;durP2;ratioP2
43504;SDS011;29098;48.184;16.298;2024-03-22T00:02:06;11.82;;;8.35;;
43504;SDS011;29098;48.184;16.298;2024-03-22T00:04:32;9.98;;;7.53;;
43504;SDS011;29098;48.184;16.298;2024-03-22T00:06:57;13.35;;;7.50;;
43504;SDS011;29098;48.184;16.298;2024-03-22T00:09:23;12.05;;;8.18;;
43504;SDS011;29098;48.184;16.298;2024-03-22T00:11:48;11.85;;;8.23;;
43504;SDS011;29098;48.184;16.298;2024-03-22T00:14:13;12.18;;;7.95;;
43504;SDS011;29098;48.184;16.298;2024-03-22T00:16:39;10.63;;;7.50;;
43504;SDS011;29098;48.184;16.298;2024-03-22T00:19:04;12.27;;;8.57;;
43504;SDS011;29098;48.184;16.298;2024-03-22T00:21:30;11.65;;;7.90;;
43504;SDS011;29098;48.184;16.298;2024-03-22T00:23:56;14.77;;;8.48;;
43504;SDS011;29098;48.184;16.298;2024-03-22T00:26:22;11.95;;;8.02;;
43504;SDS011;29098;48.184;16.298;2024-03-22T00:28:48;13.07;;;8.05;;
43504;SDS011;29098;48.184;16.298;2024-03-22T00:31:14;12.80;;;8.23;;
43504;SDS011;29098;48.184;16.298;2024-03-22T00:33:39;14.75;;;9.18;;
43504;SDS011;29098;48.184;16.298;2024-03-22T00:36:05;13.23;;;8.40;;
43504;SDS011;29098;48.184;16.298;2024-03-22T00:38:31;14.82;;;9.07;;
43504;SDS011;29098;48.184;16.298;2024-03-22T00:40:56;12.52;;;8.82;;
43504;SDS011;29098;48.184;16.298;2024-03-22T00:43:22;12.30;;;7.93;;
43504;SDS011;29098;48.184;16.298;2024-03-22T00:45:47;17.08;;;9.23;;
43504;SDS011;29098;48.184;16.298;2024-03-22T00:48:13;15.25;;;9.48;;
43504;SDS011;29098;48.184;16.298;2024-03-22T00:50:38;14.32;;;9.85;;
43504;SDS011;29098;48.184;16.298;2024-03-22T00:53:04;14.75;;;10.23;;
43504;SDS011;29098;48.184;16.298;2024-03-22T00:55:31;12.65;;;9.77;;
43504;SDS011;29098;48.184;16.298;2024-03-22T00:57:57;14.85;;;10.07;;
43504;SDS011;29098;48.184;16.298;2024-03-22T01:00:23;15.98;;;10.98;;
43504;SDS011;29098;48.184;16.298;2024-03-22T01:02:49;15.02;;;10.00;;
43504;SDS011;29098;48.184;16.298;2024-03-22T01:05:15;14.50;;;10.00;;
43504;SDS011;29098;48.184;16.298;2024-03-22T01:07:41;15.25;;;10.15;;
43504;SDS011;29098;48.184;16.298;2024-03-22T01:10:07;14.43;;;9.98;;
43504;SDS011;29098;48.184;16.298;2024-03-22T01:12:33;15.25;;;10.25;;
43504;SDS011;29098;48.184;16.298;2024-03-22T01:14:58;16.00;;;10.25;;
43504;SDS011;29098;48.184;16.298;2024-03-22T01:17:24;16.52;;;11.35;;
43504;SDS011;29098;48.184;16.298;2024-03-22T01:19:51;19.42;;;11.43;;
43504;SDS011;29098;48.184;16.298;2024-03-22T01:22:17;18.42;;;11.82;;
43504;SDS011;29098;48.184;16.298;2024-03-22T01:24:43;15.57;;;11.48;;
43504;SDS011;29098;48.184;16.298;2024-03-22T01:27:10;16.15;;;10.73;;
43504;SDS011;29098;48.184;16.298;2024-03-22T01:29:35;15.80;;;11.27;;
43504;SDS011;29098;48.184;16.298;2024-03-22T01:32:01;16.85;;;11.07;;
43504;SDS011;29098;48.184;16.298;2024-03-22T01:34:27;19.52;;;12.25;;
43504;SDS011;29098;48.184;16.298;2024-03-22T01:36:53;18.90;;;11.75;;
43504;SDS011;29098;48.184;16.298;2024-03-22T01:39:19;19.90;;;12.60;;
43504;SDS011;29098;48.184;16.298;2024-03-22T01:41:48;14.95;;;10.52;;
43504;SDS011;29098;48.184;16.298;2024-03-22T01:44:17;16.48;;;11.13;;
43504;SDS011;29098;48.184;16.298;2024-03-22T01:46:43;17.13;;;11.18;;
43504;SDS011;29098;48.184;16.298;2024-03-22T01:49:12;18.92;;;11.85;;
43504;SDS011;29098;48.184;16.298;2024-03-22T01:51:41;17.35;;;12.32;;
43504;SDS011;29098;48.184;16.298;2024-03-22T01:54:11;17.02;;;11.52;;
43504;SDS011;29098;48.184;16.298;2024-03-22T01:56:37;16.42;;;11.55;;
43504;SDS011;29098;48.184;16.298;2024-03-22T01:59:06;19.45;;;12.40;;
43504;SDS011;29098;48.184;16.298;2024-03-22T02:01:32;16.67;;;11.55;;
43504;SDS011;29098;48.184;16.298;2024-03-22T02:04:00;19.05;;;11.38;;
43504;SDS011;29098;48.184;16.298;2024-03-22T02:06:26;18.67;;;12.18;;
43504;SDS011;29098;48.184;16.298;2024-03-22T02:08:51;20.50;;;13.30;;
43504;SDS011;29098;48.184;16.298;2024-03-22T02:11:17;17.10;;;12.45;;
43504;SDS011;29098;48.184;16.298;2024-03-22T02:13:43;20.40;;;12.38;;
43504;SDS011;29098;48.184;16.298;2024-03-22T02:16:09;18.10;;;12.98;;
43504;SDS011;29098;48.184;16.298;2024-03-22T02:18:35;17.70;;;11.80;;
43504;SDS011;29098;48.184;16.298;2024-03-22T02:21:00;18.52;;;11.68;;
43504;SDS011;29098;48.184;16.298;2024-03-22T02:23:39;21.00;;;12.88;;
43504;SDS011;29098;48.184;16.298;2024-03-22T02:26:06;17.08;;;12.05;;
43504;SDS011;29098;48.184;16.298;2024-03-22T02:28:33;20.40;;;13.00;;
43504;SDS011;29098;48.184;16.298;2024-03-22T02:31:00;18.80;;;12.25;;
43504;SDS011;29098;48.184;16.298;2024-03-22T02:33:27;18.88;;;12.18;;
43504;SDS011;29098;48.184;16.298;2024-03-22T02:35:53;19.42;;;12.48;;
43504;SDS011;29098;48.184;16.298;2024-03-22T02:38:18;19.92;;;12.95;;
43504;SDS011;29098;48.184;16.298;2024-03-22T02:40:44;20.23;;;12.52;;
43504;SDS011;29098;48.184;16.298;2024-03-22T02:43:11;21.27;;;12.52;;
43504;SDS011;29098;48.184;16.298;2024-03-22T02:45:37;17.90;;;12.40;;
43504;SDS011;29098;48.184;16.298;2024-03-22T02:48:03;17.48;;;11.63;;
43504;SDS011;29098;48.184;16.298;2024-03-22T02:50:36;17.30;;;12.60;;
43504;SDS011;29098;48.184;16.298;2024-03-22T02:53:02;18.85;;;12.50;;
43504;SDS011;29098;48.184;16.298;2024-03-22T02:55:28;19.52;;;13.45;;
43504;SDS011;29098;48.184;16.298;2024-03-22T02:57:55;18.55;;;12.50;;
43504;SDS011;29098;48.184;16.298;2024-03-22T03:00:22;18.15;;;12.85;;
43504;SDS011;29098;48.184;16.298;2024-03-22T03:02:48;19.63;;;13.15;;
43504;SDS011;29098;48.184;16.298;2024-03-22T03:05:17;21.08;;;11.85;;
43504;SDS011;29098;48.184;16.298;2024-03-22T03:07:43;23.83;;;12.52;;
43504;SDS011;29098;48.184;16.298;2024-03-22T03:10:09;19.77;;;12.75;;
43504;SDS011;29098;48.184;16.298;2024-03-22T03:12:35;19.90;;;12.55;;
43504;SDS011;29098;48.184;16.298;2024-03-22T03:15:01;18.50;;;12.20;;
43504;SDS011;29098;48.184;16.298;2024-03-22T03:17:27;19.85;;;11.98;;
43504;SDS011;29098;48.184;16.298;2024-03-22T03:19:53;18.50;;;12.57;;
43504;SDS011;29098;48.184;16.298;2024-03-22T03:22:18;17.35;;;12.13;;
43504;SDS011;29098;48.184;16.298;2024-03-22T03:24:44;23.10;;;12.65;;
43504;SDS011;29098;48.184;16.298;2024-03-22T03:27:09;18.52;;;12.50;;
43504;SDS011;29098;48.184;16.298;2024-03-22T03:29:35;18.90;;;11.77;;
43504;SDS011;29098;48.184;16.298;2024-03-22T03:32:01;21.08;;;12.68;;
43504;SDS011;29098;48.184;16.298;2024-03-22T03:34:27;17.63;;;11.00;;
43504;SDS011;29098;48.184;16.298;2024-03-22T03:36:53;18.52;;;11.70;;
43504;SDS011;29098;48.184;16.298;2024-03-22T03:39:18;18.27;;;11.50;;
43504;SDS011;29098;48.184;16.298;2024-03-22T03:41:44;18.75;;;11.43;;
43504;SDS011;29098;48.184;16.298;2024-03-22T03:44:09;18.65;;;11.57;;
43504;SDS011;29098;48.184;16.298;2024-03-22T03:46:35;16.45;;;12.00;;
43504;SDS011;29098;48.184;16.298;2024-03-22T03:49:00;18.83;;;12.85;;
43504;SDS011;29098;48.184;16.298;2024-03-22T03:51:26;17.02;;;11.77;;
43504;SDS011;29098;48.184;16.298;2024-03-22T03:53:51;17.70;;;11.52;;
43504;SDS011;29098;48.184;16.298;2024-03-22T03:56:17;20.25;;;13.50;;
43504;SDS011;29098;48.184;16.298;2024-03-22T03:58:42;17.92;;;10.90;;
43504;SDS011;29098;48.184;16.298;2024-03-22T04:01:11;19.10;;;11.50;;
43504;SDS011;29098;48.184;16.298;2024-03-22T04:03:37;17.15;;;11.98;;
43504;SDS011;29098;48.184;16.298;2024-03-22T04:06:02;18.98;;;11.90;;
43504;SDS011;29098;48.184;16.298;2024-03-22T04:08:28;20.40;;;12.85;;
43504;SDS011;29098;48.184;16.298;2024-03-22T04:10:56;18.13;;;12.90;;
43504;SDS011;29098;48.184;16.298;2024-03-22T04:13:23;17.17;;;11.50;;
43504;SDS011;29098;48.184;16.298;2024-03-22T04:15:49;19.80;;;11.57;;
43504;SDS011;29098;48.184;16.298;2024-03-22T04:18:15;15.43;;;11.35;;
43504;SDS011;29098;48.184;16.298;2024-03-22T04:20:41;18.17;;;11.63;;
43504;SDS011;29098;48.184;16.298;2024-03-22T04:23:06;18.25;;;11.38;;
43504;SDS011;29098;48.184;16.298;2024-03-22T04:25:32;17.73;;;10.90;;
43504;SDS011;29098;48.184;16.298;2024-03-22T04:27:57;19.67;;;12.68;;
43504;SDS011;29098;48.184;16.298;2024-03-22T04:30:23;19.20;;;12.32;;
43504;SDS011;29098;48.184;16.298;2024-03-22T04:32:49;16.77;;;11.15;;
43504;SDS011;29098;48.184;16.298;2024-03-22T04:35:14;17.05;;;12.13;;
43504;SDS011;29098;48.184;16.298;2024-03-22T04:37:40;20.65;;;12.13;;
43504;SDS011;29098;48.184;16.298;2024-03-22T04:40:06;17.88;;;11.88;;
43504;SDS011;29098;48.184;16.298;2024-03-22T04:42:33;17.58;;;11.38;;
43504;SDS011;29098;48.184;16.298;2024-03-22T04:44:58;18.75;;;11.75;;
43504;SDS011;29098;48.184;16.298;2024-03-22T04:47:24;15.68;;;12.23;;
43504;SDS011;29098;48.184;16.298;2024-03-22T04:49:49;18.17;;;11.45;;
43504;SDS011;29098;48.184;16.298;2024-03-22T04:52:18;15.65;;;11.20;;
43504;SDS011;29098;48.184;16.298;2024-03-22T04:54:44;17.23;;;11.63;;
43504;SDS011;29098;48.184;16.298;2024-03-22T04:57:10;17.95;;;11.23;;
43504;SDS011;29098;48.184;16.298;2024-03-22T04:59:36;16.27;;;10.18;;
43504;SDS011;29098;48.184;16.298;2024-03-22T05:02:01;16.15;;;10.52;;
43504;SDS011;29098;48.184;16.298;2024-03-22T05:04:27;17.25;;;10.50;;
43504;SDS011;29098;48.184;16.298;2024-03-22T05:06:52;15.73;;;10.35;;
43504;SDS011;29098;48.184;16.298;2024-03-22T05:09:18;17.23;;;11.63;;
43504;SDS011;29098;48.184;16.298;2024-03-22T05:11:44;20.20;;;12.15;;
43504;SDS011;29098;48.184;16.298;2024-03-22T05:14:14;15.48;;;10.45;;
43504;SDS011;29098;48.184;16.298;2024-03-22T05:16:40;15.93;;;11.50;;
43504;SDS011;29098;48.184;16.298;2024-03-22T05:19:06;15.82;;;10.48;;
43504;SDS011;29098;48.184;16.298;2024-03-22T05:21:31;15.60;;;10.68;;
43504;SDS011;29098;48.184;16.298;2024-03-22T05:23:57;17.05;;;10.93;;
43504;SDS011;29098;48.184;16.298;2024-03-22T05:26:22;19.13;;;10.35;;
43504;SDS011;29098;48.184;16.298;2024-03-22T05:28:48;14.80;;;10.52;;
43504;SDS011;29098;48.184;16.298;2024-03-22T05:31:13;16.60;;;10.98;;
43504;SDS011;29098;48.184;16.298;2024-03-22T05:33:39;14.05;;;9.93;;
43504;SDS011;29098;48.184;16.298;2024-03-22T05:36:04;16.65;;;10.20;;
43504;SDS011;29098;48.184;16.298;2024-03-22T05:38:30;16.65;;;10.48;;
43504;SDS011;29098;48.184;16.298;2024-03-22T05:40:56;16.70;;;11.10;;
43504;SDS011;29098;48.184;16.298;2024-03-22T05:43:21;16.08;;;10.60;;
43504;SDS011;29098;48.184;16.298;2024-03-22T05:45:47;17.25;;;9.98;;
43504;SDS011;29098;48.184;16.298;2024-03-22T05:48:13;17.67;;;10.80;;
43504;SDS011;29098;48.184;16.298;2024-03-22T05:50:39;21.85;;;12.05;;
43504;SDS011;29098;48.184;16.298;2024-03-22T05:53:05;20.63;;;12.40;;
43504;SDS011;29098;48.184;16.298;2024-03-22T05:55:31;19.58;;;11.73;;
43504;SDS011;29098;48.184;16.298;2024-03-22T05:58:00;21.98;;;13.70;;
43504;SDS011;29098;48.184;16.298;2024-03-22T06:00:26;23.65;;;13.25;;
43504;SDS011;29098;48.184;16.298;2024-03-22T06:02:51;24.65;;;13.18;;
43504;SDS011;29098;48.184;16.298;2024-03-22T06:05:18;22.67;;;13.77;;
43504;SDS011;29098;48.184;16.298;2024-03-22T06:07:44;18.92;;;12.05;;
43504;SDS011;29098;48.184;16.298;2024-03-22T06:10:11;19.23;;;11.90;;
43504;SDS011;29098;48.184;16.298;2024-03-22T06:12:36;21.27;;;13.02;;
43504;SDS011;29098;48.184;16.298;2024-03-22T06:15:02;21.20;;;14.30;;
43504;SDS011;29098;48.184;16.298;2024-03-22T06:17:31;22.48;;;14.70;;
43504;SDS011;29098;48.184;16.298;2024-03-22T06:19:58;20.75;;;13.23;;
43504;SDS011;29098;48.184;16.298;2024-03-22T06:22:23;22.58;;;13.90;;
43504;SDS011;29098;48.184;16.298;2024-03-22T06:24:49;23.35;;;13.55;;
43504;SDS011;29098;48.184;16.298;2024-03-22T06:27:14;22.65;;;14.10;;
43504;SDS011;29098;48.184;16.298;2024-03-22T06:29:40;21.42;;;13.57;;
43504;SDS011;29098;48.184;16.298;2024-03-22T06:32:06;32.45;;;14.93;;
43504;SDS011;29098;48.184;16.298;2024-03-22T06:34:31;25.67;;;14.75;;
43504;SDS011;29098;48.184;16.298;2024-03-22T06:36:57;24.65;;;15.43;;
43504;SDS011;29098;48.184;16.298;2024-03-22T06:39:23;22.75;;;14.13;;
43504;SDS011;29098;48.184;16.298;2024-03-22T06:41:49;24.13;;;15.13;;
43504;SDS011;29098;48.184;16.298;2024-03-22T06:44:14;24.65;;;13.32;;
43504;SDS011;29098;48.184;16.298;2024-03-22T06:46:40;23.90;;;14.93;;
43504;SDS011;29098;48.184;16.298;2024-03-22T06:49:06;20.65;;;12.48;;
43504;SDS011;29098;48.184;16.298;2024-03-22T06:51:31;23.20;;;14.45;;
43504;SDS011;29098;48.184;16.298;2024-03-22T06:53:57;24.98;;;14.30;;
43504;SDS011;29098;48.184;16.298;2024-03-22T06:56:22;24.42;;;13.50;;
43504;SDS011;29098;48.184;16.298;2024-03-22T06:58:48;26.15;;;14.70;;
43504;SDS011;29098;48.184;16.298;2024-03-22T07:01:13;24.85;;;14.65;;
43504;SDS011;29098;48.184;16.298;2024-03-22T07:03:39;24.27;;;15.07;;
43504;SDS011;29098;48.184;16.298;2024-03-22T07:06:05;24.35;;;14.85;;
43504;SDS011;29098;48.184;16.298;2024-03-22T07:08:33;24.35;;;14.73;;
43504;SDS011;29098;48.184;16.298;2024-03-22T07:10:59;21.60;;;14.45;;
43504;SDS011;29098;48.184;16.298;2024-03-22T07:13:24;23.48;;;14.60;;
43504;SDS011;29098;48.184;16.298;2024-03-22T07:15:50;26.20;;;14.95;;
43504;SDS011;29098;48.184;16.298;2024-03-22T07:18:16;22.77;;;14.80;;
43504;SDS011;29098;48.184;16.298;2024-03-22T07:20:42;24.83;;;15.10;;
43504;SDS011;29098;48.184;16.298;2024-03-22T07:23:08;27.05;;;16.08;;
43504;SDS011;29098;48.184;16.298;2024-03-22T07:25:33;23.40;;;15.57;;
43504;SDS011;29098;48.184;16.298;2024-03-22T07:27:59;23.40;;;15.18;;
43504;SDS011;29098;48.184;16.298;2024-03-22T07:30:24;24.00;;;15.88;;
43504;SDS011;29098;48.184;16.298;2024-03-22T07:32:50;28.92;;;15.48;;
43504;SDS011;29098;48.184;16.298;2024-03-22T07:35:16;23.00;;;15.40;;
43504;SDS011;29098;48.184;16.298;2024-03-22T07:37:41;24.77;;;15.27;;
43504;SDS011;29098;48.184;16.298;2024-03-22T07:40:07;24.83;;;14.57;;
43504;SDS011;29098;48.184;16.298;2024-03-22T07:42:33;23.63;;;14.75;;
43504;SDS011;29098;48.184;16.298;2024-03-22T07:44:58;25.80;;;15.80;;
43504;SDS011;29098;48.184;16.298;2024-03-22T07:47:24;29.65;;;16.05;;
43504;SDS011;29098;48.184;16.298;2024-03-22T07:49:50;26.13;;;15.68;;
43504;SDS011;29098;48.184;16.298;2024-03-22T07:52:15;25.05;;;14.60;;
43504;SDS011;29098;48.184;16.298;2024-03-22T07:54:41;25.90;;;14.68;;
43504;SDS011;29098;48.184;16.298;2024-03-22T07:57:06;26.42;;;14.50;;
43504;SDS011;29098;48.184;16.298;2024-03-22T07:59:32;25.35;;;15.02;;
43504;SDS011;29098;48.184;16.298;2024-03-22T08:01:57;27.73;;;14.60;;
43504;SDS011;29098;48.184;16.298;2024-03-22T08:04:23;24.65;;;14.88;;
43504;SDS011;29098;48.184;16.298;2024-03-22T08:06:50;24.45;;;14.85;;
43504;SDS011;29098;48.184;16.298;2024-03-22T08:09:15;23.58;;;14.48;;
43504;SDS011;29098;48.184;16.298;2024-03-22T08:11:43;25.90;;;15.48;;
43504;SDS011;29098;48.184;16.298;2024-03-22T08:14:08;27.63;;;16.45;;
43504;SDS011;29098;48.184;16.298;2024-03-22T08:16:34;23.80;;;14.80;;
43504;SDS011;29098;48.184;16.298;2024-03-22T08:18:59;24.83;;;15.30;;
43504;SDS011;29098;48.184;16.298;2024-03-22T08:21:25;23.90;;;15.10;;
43504;SDS011;29098;48.184;16.298;2024-03-22T08:23:51;38.13;;;17.70;;
43504;SDS011;29098;48.184;16.298;2024-03-22T08:26:17;23.42;;;15.35;;
43504;SDS011;29098;48.184;16.298;2024-03-22T08:28:43;27.92;;;15.80;;
43504;SDS011;29098;48.184;16.298;2024-03-22T08:31:09;24.40;;;14.85;;
43504;SDS011;29098;48.184;16.298;2024-03-22T08:33:35;25.65;;;15.45;;
43504;SDS011;29098;48.184;16.298;2024-03-22T08:36:01;23.80;;;15.00;;
43504;SDS011;29098;48.184;16.298;2024-03-22T08:38:26;26.17;;;13.98;;
43504;SDS011;29098;48.184;16.298;2024-03-22T08:40:52;22.42;;;13.68;;
43504;SDS011;29098;48.184;16.298;2024-03-22T08:43:18;26.35;;;15.35;;
43504;SDS011;29098;48.184;16.298;2024-03-22T08:45:43;21.42;;;13.38;;
43504;SDS011;29098;48.184;16.298;2024-03-22T08:48:09;22.48;;;13.20;;
43504;SDS011;29098;48.184;16.298;2024-03-22T08:50:35;24.23;;;12.43;;
43504;SDS011;29098;48.184;16.298;2024-03-22T08:53:00;20.55;;;12.95;;
43504;SDS011;29098;48.184;16.298;2024-03-22T08:55:29;19.08;;;12.68;;
43504;SDS011;29098;48.184;16.298;2024-03-22T08:57:55;23.00;;;13.57;;
43504;SDS011;29098;48.184;16.298;2024-03-22T09:00:21;21.90;;;11.80;;
43504;SDS011;29098;48.184;16.298;2024-03-22T09:02:46;20.75;;;12.70;;
43504;SDS011;29098;48.184;16.298;2024-03-22T09:05:12;20.67;;;12.15;;
43504;SDS011;29098;48.184;16.298;2024-03-22T09:07:37;23.23;;;13.02;;
43504;SDS011;29098;48.184;16.298;2024-03-22T09:10:03;19.98;;;12.30;;
43504;SDS011;29098;48.184;16.298;2024-03-22T09:12:29;18.70;;;11.88;;
43504;SDS011;29098;48.184;16.298;2024-03-22T09:14:54;19.85;;;11.77;;
43504;SDS011;29098;48.184;16.298;2024-03-22T09:17:20;17.45;;;10.48;;
43504;SDS011;29098;48.184;16.298;2024-03-22T09:19:45;25.23;;;12.45;;
43504;SDS011;29098;48.184;16.298;2024-03-22T09:22:11;20.83;;;13.32;;
43504;SDS011;29098;48.184;16.298;2024-03-22T09:24:37;20.83;;;11.98;;
43504;SDS011;29098;48.184;16.298;2024-03-22T09:27:03;18.27;;;11.98;;
43504;SDS011;29098;48.184;16.298;2024-03-22T09:29:33;19.83;;;11.60;;
43504;SDS011;29098;48.184;16.298;2024-03-22T09:31:59;17.67;;;10.75;;
43504;SDS011;29098;48.184;16.298;2024-03-22T09:34:25;18.00;;;10.73;;
43504;SDS011;29098;48.184;16.298;2024-03-22T09:36:50;21.58;;;12.68;;
43504;SDS011;29098;48.184;16.298;2024-03-22T09:39:16;21.10;;;12.55;;
43504;SDS011;29098;48.184;16.298;2024-03-22T09:41:44;20.38;;;11.82;;
43504;SDS011;29098;48.184;16.298;2024-03-22T09:44:12;24.42;;;11.40;;
43504;SDS011;29098;48.184;16.298;2024-03-22T09:46:42;22.15;;;11.27;;
43504;SDS011;29098;48.184;16.298;2024-03-22T09:49:11;17.92;;;10.43;;
43504;SDS011;29098;48.184;16.298;2024-03-22T09:51:37;18.92;;;11.07;;
43504;SDS011;29098;48.184;16.298;2024-03-22T09:54:08;18.88;;;10.98;;
43504;SDS011;29098;48.184;16.298;2024-03-22T09:56:35;17.55;;;10.65;;
43504;SDS011;29098;48.184;16.298;2024-03-22T09:59:05;22.77;;;12.20;;
43504;SDS011;29098;48.184;16.298;2024-03-22T10:01:32;21.80;;;11.27;;
43504;SDS011;29098;48.184;16.298;2024-03-22T10:03:59;22.40;;;11.65;;
43504;SDS011;29098;48.184;16.298;2024-03-22T10:06:25;16.67;;;10.20;;
43504;SDS011;29098;48.184;16.298;2024-03-22T10:08:51;18.23;;;10.90;;
43504;SDS011;29098;48.184;16.298;2024-03-22T10:11:16;18.30;;;9.90;;
43504;SDS011;29098;48.184;16.298;2024-03-22T10:13:43;16.80;;;9.93;;
43504;SDS011;29098;48.184;16.298;2024-03-22T10:16:10;16.10;;;9.23;;
43504;SDS011;29098;48.184;16.298;2024-03-22T10:18:35;14.20;;;9.45;;
43504;SDS011;29098;48.184;16.298;2024-03-22T10:21:01;15.82;;;9.95;;
43504;SDS011;29098;48.184;16.298;2024-03-22T10:23:30;17.65;;;11.20;;
43504;SDS011;29098;48.184;16.298;2024-03-22T10:25:58;16.60;;;10.30;;
43504;SDS011;29098;48.184;16.298;2024-03-22T10:28:25;14.93;;;9.85;;
43504;SDS011;29098;48.184;16.298;2024-03-22T10:30:51;15.90;;;9.95;;
43504;SDS011;29098;48.184;16.298;2024-03-22T10:33:21;18.58;;;10.32;;
43504;SDS011;29098;48.184;16.298;2024-03-22T10:35:51;17.73;;;9.50;;
43504;SDS011;29098;48.184;16.298;2024-03-22T10:38:18;14.32;;;9.13;;
43504;SDS011;29098;48.184;16.298;2024-03-22T10:40:45;13.65;;;8.52;;
43504;SDS011;29098;48.184;16.298;2024-03-22T10:43:12;14.90;;;9.55;;
43504;SDS011;29098;48.184;16.298;2024-03-22T10:45:38;14.73;;;9.18;;
43504;SDS011;29098;48.184;16.298;2024-03-22T10:48:07;15.30;;;9.52;;
43504;SDS011;29098;48.184;16.298;2024-03-22T10:50:34;13.40;;;8.77;;
43504;SDS011;29098;48.184;16.298;2024-03-22T10:53:03;14.57;;;9.07;;
43504;SDS011;29098;48.184;16.298;2024-03-22T10:55:36;15.93;;;8.73;;
43504;SDS011;29098;48.184;16.298;2024-03-22T10:58:04;17.52;;;8.65;;
43504;SDS011;29098;48.184;16.298;2024-03-22T11:00:33;14.02;;;8.45;;
43504;SDS011;29098;48.184;16.298;2024-03-22T11:03:04;14.95;;;8.63;;
43504;SDS011;29098;48.184;16.298;2024-03-22T11:05:29;15.15;;;8.52;;
43504;SDS011;29098;48.184;16.298;2024-03-22T11:08:02;14.10;;;7.97;;
43504;SDS011;29098;48.184;16.298;2024-03-22T11:10:35;15.82;;;8.80;;
43504;SDS011;29098;48.184;16.298;2024-03-22T11:13:04;12.27;;;8.13;;
43504;SDS011;29098;48.184;16.298;2024-03-22T11:15:34;11.48;;;7.38;;
43504;SDS011;29098;48.184;16.298;2024-03-22T11:18:00;14.25;;;7.85;;
43504;SDS011;29098;48.184;16.298;2024-03-22T11:20:28;13.63;;;8.60;;
43504;SDS011;29098;48.184;16.298;2024-03-22T11:22:55;13.82;;;8.30;;
43504;SDS011;29098;48.184;16.298;2024-03-22T11:25:21;12.73;;;7.82;;
43504;SDS011;29098;48.184;16.298;2024-03-22T11:27:47;11.27;;;7.53;;
43504;SDS011;29098;48.184;16.298;2024-03-22T11:30:12;12.23;;;7.68;;
43504;SDS011;29098;48.184;16.298;2024-03-22T11:32:40;13.10;;;8.18;;
43504;SDS011;29098;48.184;16.298;2024-03-22T11:35:11;11.52;;;7.57;;
43504;SDS011;29098;48.184;16.298;2024-03-22T11:37:38;10.38;;;7.57;;
43504;SDS011;29098;48.184;16.298;2024-03-22T11:40:04;13.48;;;8.00;;
43504;SDS011;29098;48.184;16.298;2024-03-22T11:42:34;11.85;;;6.60;;
43504;SDS011;29098;48.184;16.298;2024-03-22T11:45:00;10.15;;;6.40;;
43504;SDS011;29098;48.184;16.298;2024-03-22T11:47:27;11.63;;;6.97;;
43504;SDS011;29098;48.184;16.298;2024-03-22T11:49:53;9.93;;;6.50;;
43504;SDS011;29098;48.184;16.298;2024-03-22T11:52:23;10.27;;;6.60;;
43504;SDS011;29098;48.184;16.298;2024-03-22T11:54:50;9.90;;;5.78;;
43504;SDS011;29098;48.184;16.298;2024-03-22T11:57:17;8.70;;;4.90;;
43504;SDS011;29098;48.184;16.298;2024-03-22T11:59:43;9.25;;;6.32;;
43504;SDS011;29098;48.184;16.298;2024-03-22T12:02:08;14.10;;;6.22;;
43504;SDS011;29098;48.184;16.298;2024-03-22T12:04:35;8.93;;;5.82;;
43504;SDS011;29098;48.184;16.298;2024-03-22T12:07:02;10.93;;;5.90;;
43504;SDS011;29098;48.184;16.298;2024-03-22T12:09:28;10.55;;;6.13;;
43504;SDS011;29098;48.184;16.298;2024-03-22T12:11:55;8.73;;;5.93;;
43504;SDS011;29098;48.184;16.298;2024-03-22T12:14:20;8.52;;;5.53;;
43504;SDS011;29098;48.184;16.298;2024-03-22T12:16:46;8.95;;;5.55;;
43504;SDS011;29098;48.184;16.298;2024-03-22T12:19:12;11.15;;;6.82;;
43504;SDS011;29098;48.184;16.298;2024-03-22T12:21:37;9.57;;;5.97;;
43504;SDS011;29098;48.184;16.298;2024-03-22T12:24:03;7.93;;;4.72;;
43504;SDS011;29098;48.184;16.298;2024-03-22T12:26:28;8.90;;;5.38;;
43504;SDS011;29098;48.184;16.298;2024-03-22T12:28:54;10.23;;;6.18;;
43504;SDS011;29098;48.184;16.298;2024-03-22T12:31:22;9.65;;;5.68;;
43504;SDS011;29098;48.184;16.298;2024-03-22T12:33:47;7.90;;;5.32;;
43504;SDS011;29098;48.184;16.298;2024-03-22T12:36:13;8.90;;;6.00;;
43504;SDS011;29098;48.184;16.298;2024-03-22T12:38:38;8.75;;;5.75;;
43504;SDS011;29098;48.184;16.298;2024-03-22T12:41:04;10.02;;;5.93;;
43504;SDS011;29098;48.184;16.298;2024-03-22T12:43:31;10.27;;;6.00;;
43504;SDS011;29098;48.184;16.298;2024-03-22T12:45:56;8.23;;;5.30;;
43504;SDS011;29098;48.184;16.298;2024-03-22T12:48:21;7.88;;;5.38;;
43504;SDS011;29098;48.184;16.298;2024-03-22T12:50:47;11.48;;;5.90;;
43504;SDS011;29098;48.184;16.298;2024-03-22T12:53:12;9.63;;;5.88;;
43504;SDS011;29098;48.184;16.298;2024-03-22T12:55:38;9.45;;;5.20;;
43504;SDS011;29098;48.184;16.298;2024-03-22T12:58:03;7.95;;;5.68;;
43504;SDS011;29098;48.184;16.298;2024-03-22T13:00:29;9.77;;;4.60;;
43504;SDS011;29098;48.184;16.298;2024-03-22T13:02:55;10.05;;;5.00;;
43504;SDS011;29098;48.184;16.298;2024-03-22T13:05:23;9.40;;;5.85;;
43504;SDS011;29098;48.184;16.298;2024-03-22T13:07:48;8.02;;;5.07;;
43504;SDS011;29098;48.184;16.298;2024-03-22T13:10:14;8.30;;;5.05;;
43504;SDS011;29098;48.184;16.298;2024-03-22T13:12:39;8.32;;;4.80;;
43504;SDS011;29098;48.184;16.298;2024-03-22T13:15:05;8.68;;;5.13;;
43504;SDS011;29098;48.184;16.298;2024-03-22T13:17:31;11.07;;;6.05;;
43504;SDS011;29098;48.184;16.298;2024-03-22T13:19:57;8.90;;;5.22;;
43504;SDS011;29098;48.184;16.298;2024-03-22T13:22:22;9.60;;;5.78;;
43504;SDS011;29098;48.184;16.298;2024-03-22T13:24:47;7.65;;;4.53;;
43504;SDS011;29098;48.184;16.298;2024-03-22T13:27:15;8.68;;;4.43;;
43504;SDS011;29098;48.184;16.298;2024-03-22T13:29:45;6.88;;;4.32;;
43504;SDS011;29098;48.184;16.298;2024-03-22T13:32:11;9.90;;;4.40;;
43504;SDS011;29098;48.184;16.298;2024-03-22T13:34:38;9.73;;;5.22;;
43504;SDS011;29098;48.184;16.298;2024-03-22T13:37:04;7.18;;;4.38;;
43504;SDS011;29098;48.184;16.298;2024-03-22T13:39:31;7.80;;;5.15;;
43504;SDS011;29098;48.184;16.298;2024-03-22T13:41:57;9.30;;;5.78;;
43504;SDS011;29098;48.184;16.298;2024-03-22T13:44:23;9.88;;;5.13;;
43504;SDS011;29098;48.184;16.298;2024-03-22T13:46:49;8.63;;;4.38;;
43504;SDS011;29098;48.184;16.298;2024-03-22T13:49:16;5.95;;;4.05;;
43504;SDS011;29098;48.184;16.298;2024-03-22T13:51:42;7.03;;;4.00;;
43504;SDS011;29098;48.184;16.298;2024-03-22T13:54:08;12.73;;;4.35;;
43504;SDS011;29098;48.184;16.298;2024-03-22T13:56:35;8.00;;;3.92;;
43504;SDS011;29098;48.184;16.298;2024-03-22T13:59:00;7.85;;;3.78;;
43504;SDS011;29098;48.184;16.298;2024-03-22T14:01:27;6.10;;;3.80;;
43504;SDS011;29098;48.184;16.298;2024-03-22T14:03:52;6.13;;;3.78;;
43504;SDS011;29098;48.184;16.298;2024-03-22T14:06:18;6.88;;;4.20;;
43504;SDS011;29098;48.184;16.298;2024-03-22T14:08:43;6.45;;;4.28;;
43504;SDS011;29098;48.184;16.298;2024-03-22T14:11:09;6.80;;;3.90;;